createdAt,value
2018-08-10T00:01:05.406Z,73.22
2018-08-10T00:03:34.608Z,73.35
2018-08-10T00:06:03.875Z,73.43
2018-08-10T00:08:33.049Z,73.24
2018-08-10T00:11:02.257Z,73.22
2018-08-10T00:13:31.420Z,72.93
2018-08-10T00:16:00.651Z,72.48
2018-08-10T00:18:29.825Z,72.73
2018-08-10T00:20:59.036Z,73.17
2018-08-10T00:23:28.208Z,74.38
2018-08-10T00:25:57.500Z,73.98
2018-08-10T00:28:26.693Z,75.67
2018-08-10T00:30:55.852Z,76.20
2018-08-10T00:33:25.050Z,77.01
2018-08-10T00:35:54.201Z,76.59
2018-08-10T00:38:23.385Z,76.73
2018-08-10T00:40:52.541Z,77.67
2018-08-10T00:43:21.713Z,76.60
2018-08-10T00:45:50.914Z,77.10
2018-08-10T00:48:20.138Z,76.45
2018-08-10T00:50:49.311Z,76.22
2018-08-10T00:53:18.509Z,76.41
2018-08-10T00:55:47.669Z,76.70
2018-08-10T00:58:16.882Z,76.35
2018-08-10T01:00:46.038Z,77.31
2018-08-10T01:03:15.234Z,76.55
2018-08-10T01:05:44.433Z,76.32
2018-08-10T01:08:13.674Z,76.61
2018-08-10T01:10:42.905Z,75.79
2018-08-10T01:13:12.146Z,76.33
2018-08-10T01:15:41.282Z,76.74
2018-08-10T01:18:10.481Z,76.67
2018-08-10T01:20:39.673Z,76.20
2018-08-10T01:23:08.877Z,76.79
2018-08-10T01:25:38.073Z,76.66
2018-08-10T01:28:07.258Z,76.71
2018-08-10T01:30:36.562Z,76.44
2018-08-10T01:33:05.781Z,76.39
2018-08-10T01:35:35.083Z,76.67
2018-08-10T01:38:04.281Z,76.35
2018-08-10T01:40:33.457Z,76.58
2018-08-10T01:43:02.650Z,76.58
2018-08-10T01:45:31.837Z,77.01
2018-08-10T01:48:01.029Z,77.89
2018-08-10T01:50:30.224Z,77.98
2018-08-10T01:52:59.409Z,77.81
2018-08-10T01:55:28.697Z,77.48
2018-08-10T01:57:57.882Z,77.62
2018-08-10T02:00:27.077Z,78.16
2018-08-10T02:02:56.259Z,78.60
2018-08-10T02:05:25.449Z,77.23
2018-08-10T02:07:54.625Z,77.00
2018-08-10T02:10:23.821Z,76.99
2018-08-10T02:12:58.041Z,77.68
2018-08-10T02:15:27.245Z,78.24
2018-08-10T02:17:56.422Z,77.52
2018-08-10T02:20:26.334Z,77.53
2018-08-10T02:22:55.539Z,77.47
2018-08-10T02:25:24.714Z,78.11
2018-08-10T02:27:53.909Z,79.26
2018-08-10T02:30:23.313Z,78.02
2018-08-10T02:32:52.941Z,78.05
2018-08-10T02:35:22.138Z,78.38
2018-08-10T02:37:51.330Z,78.10
2018-08-10T02:40:21.836Z,78.23
2018-08-10T02:42:51.858Z,78.33
2018-08-10T02:45:21.277Z,77.69
2018-08-10T02:47:50.889Z,78.28
2018-08-10T02:50:20.097Z,78.21
2018-08-10T02:52:49.314Z,77.85
2018-08-10T02:55:18.527Z,77.22
2018-08-10T02:57:47.668Z,77.20
2018-08-10T03:00:17.794Z,76.96
2018-08-10T03:02:47.278Z,76.50
2018-08-10T03:05:16.497Z,75.71
2018-08-10T03:07:45.662Z,75.52
2018-08-10T03:10:15.493Z,75.80
2018-08-10T03:12:44.677Z,75.47
2018-08-10T03:15:15.632Z,75.48
2018-08-10T03:17:45.137Z,75.97
2018-08-10T03:20:14.461Z,75.89
2018-08-10T03:22:43.635Z,77.19
2018-08-10T03:25:14.073Z,76.18
2018-08-10T03:27:43.257Z,76.31
2018-08-10T03:30:13.330Z,76.20
2018-08-10T03:32:42.513Z,76.33
2018-08-10T03:35:11.755Z,75.90
2018-08-10T03:37:40.941Z,76.57
2018-08-10T03:40:13.561Z,77.26
2018-08-10T03:42:42.842Z,76.83
2018-08-10T03:45:12.026Z,77.75
2018-08-10T03:47:41.244Z,77.14
2018-08-10T03:50:12.304Z,77.36
2018-08-10T03:52:42.005Z,77.22
2018-08-10T03:55:11.597Z,75.98
2018-08-10T03:57:40.993Z,76.03
2018-08-10T04:00:12.653Z,77.12
2018-08-10T04:02:41.957Z,76.34
2018-08-10T04:05:12.295Z,75.51
2018-08-10T04:07:41.522Z,77.34
2018-08-10T04:10:10.993Z,77.63
2018-08-10T04:12:40.253Z,76.38
2018-08-10T04:15:12.313Z,76.80
2018-08-10T04:17:41.583Z,76.80
2018-08-10T04:20:11.199Z,77.24
2018-08-10T04:22:40.361Z,77.32
2018-08-10T04:25:09.558Z,76.83
2018-08-10T04:27:38.733Z,75.62
2018-08-10T04:30:09.805Z,76.01
2018-08-10T04:32:39.149Z,76.40
2018-08-10T04:35:08.685Z,76.08
2018-08-10T04:37:37.885Z,75.84
2018-08-10T04:40:09.268Z,76.05
2018-08-10T04:42:38.420Z,75.87
2018-08-10T04:45:07.962Z,76.16
2018-08-10T04:47:41.197Z,76.40
2018-08-10T04:50:10.377Z,75.95
2018-08-10T04:52:39.565Z,76.02
2018-08-10T04:55:08.749Z,76.31
2018-08-10T04:57:37.947Z,76.64
2018-08-10T05:00:10.271Z,76.92
2018-08-10T05:02:39.591Z,75.92
2018-08-10T05:05:09.740Z,76.67
2018-08-10T05:07:39.522Z,75.98
2018-08-10T05:10:08.944Z,76.49
2018-08-10T05:12:39.061Z,76.21
2018-08-10T05:15:09.669Z,76.00
2018-08-10T05:17:39.402Z,76.95
2018-08-10T05:20:09.942Z,76.32
2018-08-10T05:22:39.537Z,76.94
2018-08-10T05:25:08.738Z,76.70
2018-08-10T05:27:38.129Z,75.85
2018-08-10T05:30:09.257Z,76.12
2018-08-10T05:32:38.452Z,75.76
2018-08-10T05:35:08.890Z,75.91
2018-08-10T05:37:38.121Z,74.60
2018-08-10T05:40:09.150Z,74.13
2018-08-10T05:42:38.307Z,72.48
2018-08-10T05:45:07.841Z,71.42
2018-08-10T05:47:37.070Z,71.13
2018-08-10T05:50:06.933Z,69.57
2018-08-10T05:52:36.176Z,68.83
2018-08-10T05:55:06.265Z,69.48
2018-08-10T05:57:35.558Z,71.81
2018-08-10T06:00:05.410Z,72.37
2018-08-10T06:02:34.570Z,72.27
2018-08-10T06:05:03.742Z,72.33
2018-08-10T06:07:32.901Z,73.15
2018-08-10T06:10:02.078Z,73.53
2018-08-10T06:12:31.701Z,74.45
2018-08-10T06:15:00.877Z,74.14
2018-08-10T06:17:30.064Z,73.87
2018-08-10T06:19:59.251Z,72.74
2018-08-10T06:22:28.405Z,72.58
2018-08-10T06:24:57.618Z,73.77
2018-08-10T06:27:26.817Z,74.97
2018-08-10T06:29:56.026Z,75.73
2018-08-10T06:32:25.246Z,75.27
2018-08-10T06:34:54.435Z,74.14
2018-08-10T06:37:23.667Z,72.84
2018-08-10T06:39:52.846Z,71.39
2018-08-10T06:42:22.004Z,70.74
2018-08-10T06:44:51.274Z,70.28
2018-08-10T06:47:20.389Z,69.83
2018-08-10T06:49:49.572Z,69.62
2018-08-10T06:52:18.785Z,69.76
2018-08-10T06:54:47.973Z,70.12
2018-08-10T06:57:17.141Z,69.27
2018-08-10T06:59:46.358Z,69.56
2018-08-10T07:02:15.554Z,71.39
2018-08-10T07:04:44.727Z,70.63
2018-08-10T07:07:14.051Z,70.94
2018-08-10T07:09:43.202Z,71.56
2018-08-10T07:12:12.397Z,70.97
2018-08-10T07:14:41.602Z,71.25
2018-08-10T07:17:10.772Z,70.96
2018-08-10T07:19:39.921Z,70.04
2018-08-10T07:22:09.173Z,70.29
2018-08-10T07:24:38.381Z,71.05
2018-08-10T07:27:07.587Z,70.12
2018-08-10T07:29:36.745Z,72.28
2018-08-10T07:32:06.081Z,71.93
2018-08-10T07:34:35.513Z,73.16
2018-08-10T07:37:04.705Z,71.76
2018-08-10T07:39:36.741Z,72.38
2018-08-10T07:42:05.987Z,71.91
2018-08-10T07:44:35.188Z,73.03
2018-08-10T07:47:04.372Z,73.66
2018-08-10T07:49:33.553Z,74.20
2018-08-10T07:52:02.738Z,71.27
2018-08-10T07:54:31.892Z,72.44
2018-08-10T07:57:01.061Z,72.37
2018-08-10T07:59:30.267Z,72.89
2018-08-10T08:01:59.468Z,74.60
2018-08-10T08:04:28.656Z,73.76
2018-08-10T08:06:58.014Z,73.91
2018-08-10T08:09:27.155Z,74.17
2018-08-10T08:11:56.321Z,74.54
2018-08-10T08:14:25.486Z,74.87
2018-08-10T08:16:54.664Z,74.37
2018-08-10T08:19:23.863Z,73.30
2018-08-10T08:22:20.485Z,73.46
2018-08-10T08:24:49.682Z,72.58
2018-08-10T08:27:19.711Z,72.70
2018-08-10T08:29:48.890Z,72.38
2018-08-10T08:32:18.117Z,71.59
2018-08-10T08:34:47.377Z,71.39
2018-08-10T08:37:16.502Z,71.14
2018-08-10T08:40:22.037Z,70.79
2018-08-10T08:42:51.635Z,69.94
2018-08-10T08:45:59.298Z,70.40
2018-08-10T08:48:29.343Z,69.49
2018-08-10T08:51:02.125Z,70.09
2018-08-10T08:53:31.292Z,68.18
2018-08-10T08:56:04.990Z,68.18
2018-08-10T08:58:34.697Z,69.89
2018-08-10T09:01:04.849Z,71.34
2018-08-10T09:05:01.017Z,69.40
2018-08-10T09:07:30.792Z,68.36
2018-08-10T09:10:00.905Z,68.08
2018-08-10T09:12:30.355Z,68.72
2018-08-10T09:15:01.986Z,68.30
2018-08-10T09:17:31.277Z,68.61
2018-08-10T09:20:00.461Z,69.05
2018-08-10T09:22:29.908Z,67.80
2018-08-10T09:24:59.081Z,68.88
2018-08-10T09:27:28.274Z,68.64
2018-08-10T09:29:57.468Z,71.02
2018-08-10T09:32:26.669Z,70.05
2018-08-10T09:34:55.837Z,72.05
2018-08-10T09:37:25.062Z,69.89
2018-08-10T09:39:54.229Z,72.55
2018-08-10T09:42:23.397Z,71.43
2018-08-10T09:44:52.616Z,71.96
2018-08-10T09:47:21.825Z,69.91
2018-08-10T09:49:51.329Z,70.16
2018-08-10T09:52:20.510Z,72.97
2018-08-10T09:55:30.269Z,73.21
2018-08-10T09:58:00.711Z,72.20
2018-08-10T10:00:35.222Z,69.67
2018-08-10T10:03:09.650Z,69.92
2018-08-10T10:05:38.833Z,71.53
2018-08-10T10:08:08.058Z,71.78
2018-08-10T10:10:37.237Z,68.34
2018-08-10T10:13:06.536Z,69.22
2018-08-10T10:15:35.729Z,68.65
2018-08-10T10:18:06.095Z,69.36
2018-08-10T10:20:35.277Z,69.87
2018-08-10T10:23:04.456Z,68.59
2018-08-10T10:25:33.614Z,67.95
2018-08-10T10:28:02.905Z,69.09
2018-08-10T10:30:34.949Z,68.12
2018-08-10T10:33:04.313Z,70.20
2018-08-10T10:35:33.496Z,71.21
2018-08-10T10:38:02.695Z,69.87
2018-08-10T10:40:31.873Z,70.04
2018-08-10T10:43:01.070Z,69.72
2018-08-10T10:45:30.245Z,69.84
2018-08-10T10:47:59.432Z,70.89
2018-08-10T10:50:28.637Z,70.96
2018-08-10T10:52:57.860Z,68.95
2018-08-10T10:55:27.115Z,69.61
2018-08-10T10:57:56.258Z,70.38
2018-08-10T11:00:25.428Z,68.74
2018-08-10T11:02:54.602Z,67.97
2018-08-10T11:05:23.777Z,69.66
2018-08-10T11:07:53.084Z,66.26
2018-08-10T11:10:22.378Z,64.64
2018-08-10T11:12:51.570Z,64.29
2018-08-10T11:15:20.762Z,65.29
2018-08-10T11:17:49.913Z,66.66
2018-08-10T11:20:19.150Z,64.92
2018-08-10T11:22:48.349Z,63.99
2018-08-10T11:25:17.596Z,67.15
2018-08-10T11:27:46.764Z,68.12
2018-08-10T11:30:15.970Z,69.33
2018-08-10T11:32:45.097Z,67.39
2018-08-10T11:35:14.310Z,68.75
2018-08-10T11:37:43.525Z,65.56
2018-08-10T11:40:15.741Z,65.59
2018-08-10T11:42:45.049Z,66.17
2018-08-10T11:45:15.803Z,65.60
2018-08-10T11:47:45.038Z,67.70
2018-08-10T11:50:14.345Z,66.57
2018-08-10T11:52:43.746Z,63.56
2018-08-10T11:55:14.420Z,62.90
2018-08-10T11:57:44.275Z,64.25
2018-08-10T12:00:14.789Z,65.42
2018-08-10T12:02:44.208Z,66.30
2018-08-10T12:05:14.061Z,67.66
2018-08-10T12:07:43.528Z,65.01
2018-08-10T12:10:12.733Z,67.35
2018-08-10T12:12:41.938Z,68.09
2018-08-10T12:15:13.054Z,66.90
2018-08-10T12:17:42.277Z,67.45
2018-08-10T12:20:11.490Z,68.35
2018-08-10T12:22:41.541Z,66.63
2018-08-10T12:25:10.760Z,67.50
2018-08-10T12:27:39.932Z,67.52
2018-08-10T12:30:11.906Z,70.91
2018-08-10T12:32:41.070Z,70.05
2018-08-10T12:35:10.553Z,71.15
2018-08-10T12:37:39.751Z,69.00
2018-08-10T12:40:09.190Z,67.62
2018-08-10T12:42:38.879Z,68.03
2018-08-10T12:45:08.063Z,67.25
2018-08-10T12:47:37.821Z,68.57
2018-08-10T12:50:07.664Z,69.08
2018-08-10T12:52:36.831Z,68.15
2018-08-10T12:55:06.041Z,68.85
2018-08-10T12:57:35.221Z,70.77
2018-08-10T13:00:07.066Z,69.54
2018-08-10T13:02:36.332Z,67.77
2018-08-10T13:05:05.957Z,67.84
2018-08-10T13:07:35.203Z,65.81
2018-08-10T13:10:05.173Z,65.38
2018-08-10T13:12:34.327Z,67.17
2018-08-10T13:15:03.529Z,67.99
2018-08-10T13:17:32.732Z,68.73
2018-08-10T13:20:01.934Z,67.67
2018-08-10T13:22:31.106Z,68.09
2018-08-10T13:25:00.273Z,68.10
2018-08-10T13:27:29.457Z,68.84
2018-08-10T13:29:58.658Z,68.07
2018-08-10T13:32:27.864Z,66.99
2018-08-10T13:34:57.025Z,67.00
2018-08-10T13:37:26.205Z,68.10
2018-08-10T13:39:55.373Z,67.78
2018-08-10T13:42:24.611Z,68.53
2018-08-10T13:44:53.763Z,67.65
2018-08-10T13:47:22.946Z,67.48
2018-08-10T13:49:52.113Z,66.80
2018-08-10T13:52:21.305Z,68.37
2018-08-10T13:54:50.479Z,69.10
2018-08-10T13:57:19.681Z,68.27
2018-08-10T13:59:48.890Z,66.00
2018-08-10T14:02:18.065Z,67.85
2018-08-10T14:04:47.273Z,68.84
2018-08-10T14:07:16.501Z,68.94
2018-08-10T14:09:45.681Z,69.73
2018-08-10T14:12:14.860Z,69.08
2018-08-10T14:14:44.035Z,69.58
2018-08-10T14:17:13.242Z,69.00
2018-08-10T14:19:42.621Z,68.43
2018-08-10T14:22:11.787Z,69.31
2018-08-10T14:24:41.001Z,68.13
2018-08-10T14:27:10.168Z,68.83
2018-08-10T14:29:39.434Z,69.78
2018-08-10T14:32:08.609Z,69.08
2018-08-10T14:34:37.769Z,68.48
2018-08-10T14:37:06.946Z,68.59
2018-08-10T14:39:36.129Z,68.30
2018-08-10T14:42:05.489Z,67.70
2018-08-10T14:44:34.731Z,69.06
2018-08-10T14:47:03.901Z,68.81
2018-08-10T14:49:33.080Z,69.00
2018-08-10T14:52:02.232Z,68.30
2018-08-10T14:54:31.410Z,68.25
2018-08-10T14:57:00.613Z,70.27
2018-08-10T14:59:29.806Z,69.24
2018-08-10T15:01:58.997Z,68.73
2018-08-10T15:04:28.153Z,68.15
2018-08-10T15:06:57.328Z,67.80
2018-08-10T15:09:26.501Z,69.20
2018-08-10T15:11:55.761Z,68.51
2018-08-10T15:14:24.884Z,67.17
2018-08-10T15:16:54.097Z,66.37
2018-08-10T15:19:23.252Z,67.00
2018-08-10T15:21:52.456Z,66.56
2018-08-10T15:24:21.669Z,66.82
2018-08-10T15:26:50.836Z,66.56
2018-08-10T15:29:20.001Z,66.69
2018-08-10T15:31:49.177Z,65.82
2018-08-10T15:34:18.375Z,66.18
2018-08-10T15:37:50.545Z,65.67
2018-08-10T15:40:20.279Z,65.25
2018-08-10T15:42:49.486Z,65.12
2018-08-10T15:45:18.933Z,64.27
2018-08-10T15:47:48.313Z,64.19
2018-08-10T15:50:17.513Z,67.13
2018-08-10T15:52:46.845Z,67.32
2018-08-10T15:55:16.172Z,68.12
2018-08-10T15:57:45.388Z,68.87
2018-08-10T16:00:19.316Z,67.02
2018-08-10T16:02:48.921Z,66.81
2018-08-10T16:05:18.138Z,67.01
2018-08-10T16:07:47.308Z,67.30
2018-08-10T16:10:16.518Z,67.27
2018-08-10T16:12:45.808Z,66.66
2018-08-10T16:15:17.269Z,66.88
2018-08-10T16:17:46.564Z,67.81
2018-08-10T16:20:17.940Z,67.01
2018-08-10T16:22:47.156Z,68.45
2018-08-10T16:25:16.310Z,68.15
2018-08-10T16:27:45.804Z,66.88
2018-08-10T16:30:16.322Z,67.10
2018-08-10T16:32:46.204Z,67.49
2018-08-10T16:35:16.165Z,67.95
2018-08-10T16:37:46.400Z,67.60
2018-08-10T16:40:17.385Z,69.11
2018-08-10T16:42:46.601Z,70.61
2018-08-10T16:45:15.876Z,71.33
2018-08-10T16:47:45.045Z,71.58
2018-08-10T16:50:16.874Z,71.98
2018-08-10T16:52:46.348Z,71.85
2018-08-10T16:55:17.068Z,71.10
2018-08-10T16:57:46.935Z,70.64
2018-08-10T17:00:18.443Z,70.12
2018-08-10T17:02:48.040Z,70.37
2018-08-10T17:05:17.273Z,70.37
2018-08-10T17:07:46.410Z,69.90
2018-08-10T17:10:15.581Z,69.43
2018-08-10T17:12:45.729Z,69.03
2018-08-10T17:15:17.340Z,68.87
2018-08-10T17:17:47.393Z,69.98
2018-08-10T17:20:17.321Z,70.24
2018-08-10T17:22:46.600Z,70.43
2018-08-10T17:25:20.005Z,70.56
2018-08-10T17:27:49.221Z,70.85
2018-08-10T17:30:19.471Z,70.48
2018-08-10T17:32:48.657Z,71.18
2018-08-10T17:35:18.081Z,70.48
2018-08-10T17:37:47.550Z,71.84
2018-08-10T17:40:17.100Z,71.22
2018-08-10T17:42:46.265Z,71.68
2018-08-10T17:45:16.764Z,72.40
2018-08-10T17:47:45.972Z,71.81
2018-08-10T17:50:19.029Z,71.51
2018-08-10T17:52:49.568Z,72.40
2018-08-10T17:55:19.304Z,72.14
2018-08-10T17:57:48.806Z,71.53
2018-08-10T18:00:21.042Z,72.11
2018-08-10T18:02:50.885Z,71.85
2018-08-10T18:05:20.050Z,71.69
2018-08-10T18:07:49.229Z,72.33
2018-08-10T18:10:19.725Z,71.15
2018-08-10T18:12:48.933Z,71.27
2018-08-10T18:15:19.888Z,71.24
2018-08-10T18:17:49.438Z,70.54
2018-08-10T18:20:20.170Z,70.21
2018-08-10T18:22:51.133Z,70.27
2018-08-10T18:25:21.823Z,70.88
2018-08-10T18:27:50.988Z,70.40
2018-08-10T18:30:23.143Z,70.42
2018-08-10T18:32:52.336Z,70.63
2018-08-10T18:35:21.520Z,70.57
2018-08-10T18:37:51.321Z,71.54
2018-08-10T18:40:21.377Z,70.68
2018-08-10T18:42:51.024Z,71.18
2018-08-10T18:45:21.476Z,72.08
2018-08-10T18:47:50.662Z,71.09
2018-08-10T18:50:20.712Z,72.26
2018-08-10T18:52:49.862Z,72.58
2018-08-10T18:55:21.321Z,72.79
2018-08-10T18:57:51.136Z,72.80
2018-08-10T19:00:25.404Z,73.11
2018-08-10T19:02:55.283Z,74.10
2018-08-10T19:05:24.464Z,73.70
2018-08-10T19:07:53.761Z,74.13
2018-08-10T19:10:24.289Z,73.77
2018-08-10T19:12:53.512Z,73.94
2018-08-10T19:15:22.718Z,74.28
2018-08-10T19:17:51.933Z,74.29
2018-08-10T19:20:22.141Z,74.40
2018-08-10T19:22:51.337Z,74.49
2018-08-10T19:25:20.532Z,74.34
2018-08-10T19:27:49.741Z,74.47
2018-08-10T19:30:21.499Z,74.27
2018-08-10T19:32:50.791Z,75.31
2018-08-10T19:35:20.121Z,74.35
2018-08-10T19:37:49.442Z,75.11
2018-08-10T19:40:19.571Z,74.75
2018-08-10T19:42:49.013Z,74.79
2018-08-10T19:45:18.501Z,74.86
2018-08-10T19:47:47.699Z,74.67
2018-08-10T19:50:17.821Z,75.52
2018-08-10T19:52:47.077Z,74.90
2018-08-10T19:55:16.318Z,74.85
2018-08-10T19:57:45.541Z,75.44
2018-08-10T20:00:17.598Z,75.22
2018-08-10T20:02:47.573Z,75.14
2018-08-10T20:05:17.001Z,75.08
2018-08-10T20:07:46.777Z,74.84
2018-08-10T20:10:16.213Z,74.24
2018-08-10T20:12:45.422Z,74.82
2018-08-10T20:15:17.431Z,74.38
2018-08-10T20:17:46.509Z,74.95
2018-08-10T20:20:18.246Z,74.88
2018-08-10T20:22:47.704Z,74.96
2018-08-10T20:25:17.357Z,75.08
2018-08-10T20:27:46.505Z,75.41
2018-08-10T20:30:18.491Z,74.97
2018-08-10T20:32:49.300Z,75.64
2018-08-10T20:35:20.168Z,74.88
2018-08-10T20:37:49.877Z,75.04
2018-08-10T20:40:20.169Z,74.89
2018-08-10T20:42:49.834Z,74.81
2018-08-10T20:45:20.112Z,75.42
2018-08-10T20:47:49.335Z,75.15
2018-08-10T20:50:24.102Z,74.67
2018-08-10T20:52:53.252Z,74.61
2018-08-10T20:55:22.629Z,74.94
2018-08-10T20:57:51.953Z,75.40
2018-08-10T21:00:21.133Z,74.73
2018-08-10T21:02:50.389Z,75.13
2018-08-10T21:05:19.566Z,75.37
2018-08-10T21:07:48.727Z,75.20
2018-08-10T21:10:17.927Z,75.70
2018-08-10T21:12:47.649Z,75.38
2018-08-10T21:15:17.261Z,75.42
2018-08-10T21:17:47.072Z,75.89
2018-08-10T21:20:17.268Z,75.11
2018-08-10T21:22:47.971Z,76.29
2018-08-10T21:25:17.128Z,75.83
2018-08-10T21:27:46.325Z,76.49
2018-08-10T21:30:18.053Z,76.31
2018-08-10T21:32:47.889Z,76.46
2018-08-10T21:35:17.064Z,76.11
2018-08-10T21:37:46.329Z,76.18
2018-08-10T21:40:16.241Z,75.83
2018-08-10T21:42:45.429Z,76.31
2018-08-10T21:45:14.611Z,75.77
2018-08-10T21:47:43.787Z,76.49
2018-08-10T21:50:14.345Z,76.17
2018-08-10T21:52:44.437Z,75.82
2018-08-10T21:55:13.713Z,76.50
2018-08-10T21:57:42.955Z,76.59
2018-08-10T22:01:16.573Z,75.88
2018-08-10T22:03:45.733Z,76.39
2018-08-10T22:06:14.933Z,75.82
2018-08-10T22:08:44.089Z,76.12
2018-08-10T22:11:13.296Z,76.63
2018-08-10T22:13:47.841Z,76.04
2018-08-10T22:16:22.837Z,76.52
2018-08-10T22:18:57.253Z,76.77
2018-08-10T22:21:26.435Z,75.97
2018-08-10T22:23:55.622Z,76.23
2018-08-10T22:26:24.826Z,76.54
2018-08-10T22:28:53.981Z,76.63
2018-08-10T22:31:23.197Z,77.36
2018-08-10T22:33:52.353Z,76.65
2018-08-10T22:36:21.628Z,76.77
2018-08-10T22:38:50.829Z,76.70
2018-08-10T22:41:20.050Z,76.61
2018-08-10T22:43:49.234Z,76.75
2018-08-10T22:46:18.429Z,76.98
2018-08-10T22:48:47.602Z,76.88
2018-08-10T22:51:16.835Z,76.61
2018-08-10T22:53:46.021Z,76.97
2018-08-10T22:56:16.524Z,77.19
2018-08-10T22:58:45.722Z,77.02
2018-08-10T23:01:14.932Z,77.33
2018-08-10T23:03:44.136Z,77.00
2018-08-10T23:06:13.307Z,76.91
2018-08-10T23:08:42.611Z,76.60
2018-08-10T23:11:11.705Z,76.58
2018-08-10T23:13:40.904Z,76.74
2018-08-10T23:16:10.837Z,76.60
2018-08-10T23:18:40.016Z,76.62
2018-08-10T23:21:09.230Z,77.01
2018-08-10T23:23:38.393Z,77.59
2018-08-10T23:26:07.738Z,77.02
2018-08-10T23:28:36.910Z,77.58
2018-08-10T23:31:06.381Z,76.93
2018-08-10T23:33:35.687Z,77.80
2018-08-10T23:36:04.903Z,77.82
2018-08-10T23:38:34.084Z,77.10
2018-08-10T23:41:03.249Z,77.03
2018-08-10T23:43:32.466Z,77.53
2018-08-10T23:46:01.691Z,77.61
2018-08-10T23:48:31.411Z,77.71
2018-08-10T23:51:00.612Z,76.92
2018-08-10T23:53:29.818Z,77.16
2018-08-10T23:55:59.032Z,77.31
2018-08-10T23:58:28.245Z,78.06
